sensor_id;sensor_type;location;lat;lon;timestamp;P1;durP1;ratioP1;P2;durP2;ratioP2
2225;SDS011;1119;48.288;8.726;2022-07-29T00:00:28;9.13;;;8.00;;
2225;SDS011;1119;48.288;8.726;2022-07-29T00:02:55;8.80;;;8.23;;
2225;SDS011;1119;48.288;8.726;2022-07-29T00:05:22;10.03;;;9.33;;
2225;SDS011;1119;48.288;8.726;2022-07-29T00:07:50;9.23;;;8.43;;
2225;SDS011;1119;48.288;8.726;2022-07-29T00:10:17;8.07;;;7.67;;
2225;SDS011;1119;48.288;8.726;2022-07-29T00:12:45;9.17;;;8.53;;
2225;SDS011;1119;48.288;8.726;2022-07-29T00:15:12;7.73;;;7.33;;
2225;SDS011;1119;48.288;8.726;2022-07-29T00:17:39;7.80;;;7.40;;
2225;SDS011;1119;48.288;8.726;2022-07-29T00:20:07;8.87;;;8.27;;
2225;SDS011;1119;48.288;8.726;2022-07-29T00:22:36;8.13;;;7.63;;
2225;SDS011;1119;48.288;8.726;2022-07-29T00:25:04;6.53;;;6.20;;
2225;SDS011;1119;48.288;8.726;2022-07-29T00:27:33;6.50;;;6.20;;
2225;SDS011;1119;48.288;8.726;2022-07-29T00:30:02;6.00;;;5.70;;
2225;SDS011;1119;48.288;8.726;2022-07-29T00:32:30;6.40;;;6.10;;
2225;SDS011;1119;48.288;8.726;2022-07-29T00:34:57;7.70;;;6.97;;
2225;SDS011;1119;48.288;8.726;2022-07-29T00:37:42;6.73;;;6.23;;
2225;SDS011;1119;48.288;8.726;2022-07-29T00:40:09;6.17;;;5.77;;
2225;SDS011;1119;48.288;8.726;2022-07-29T00:42:46;5.87;;;5.57;;
2225;SDS011;1119;48.288;8.726;2022-07-29T00:45:18;6.40;;;6.10;;
2225;SDS011;1119;48.288;8.726;2022-07-29T00:47:47;5.20;;;4.90;;
2225;SDS011;1119;48.288;8.726;2022-07-29T00:50:14;5.20;;;4.80;;
2225;SDS011;1119;48.288;8.726;2022-07-29T00:52:42;5.07;;;4.87;;
2225;SDS011;1119;48.288;8.726;2022-07-29T00:55:10;5.13;;;4.93;;
2225;SDS011;1119;48.288;8.726;2022-07-29T00:57:40;5.20;;;5.00;;
2225;SDS011;1119;48.288;8.726;2022-07-29T01:00:10;4.47;;;4.27;;
2225;SDS011;1119;48.288;8.726;2022-07-29T01:02:41;5.00;;;4.80;;
2225;SDS011;1119;48.288;8.726;2022-07-29T01:05:08;5.20;;;5.00;;
2225;SDS011;1119;48.288;8.726;2022-07-29T01:07:37;5.43;;;5.13;;
2225;SDS011;1119;48.288;8.726;2022-07-29T01:10:06;5.13;;;4.83;;
2225;SDS011;1119;48.288;8.726;2022-07-29T01:12:36;5.17;;;4.87;;
2225;SDS011;1119;48.288;8.726;2022-07-29T01:15:05;5.17;;;4.87;;
2225;SDS011;1119;48.288;8.726;2022-07-29T01:17:36;5.57;;;5.27;;
2225;SDS011;1119;48.288;8.726;2022-07-29T01:20:10;4.93;;;4.73;;
2225;SDS011;1119;48.288;8.726;2022-07-29T01:22:50;5.73;;;5.43;;
2225;SDS011;1119;48.288;8.726;2022-07-29T01:25:45;5.60;;;5.20;;
2225;SDS011;1119;48.288;8.726;2022-07-29T01:31:36;5.30;;;5.03;;
2225;SDS011;1119;48.288;8.726;2022-07-29T01:34:10;4.27;;;4.17;;
2225;SDS011;1119;48.288;8.726;2022-07-29T01:36:46;5.73;;;4.70;;
2225;SDS011;1119;48.288;8.726;2022-07-29T01:39:18;4.70;;;4.50;;
2225;SDS011;1119;48.288;8.726;2022-07-29T01:41:51;4.30;;;4.20;;
2225;SDS011;1119;48.288;8.726;2022-07-29T01:44:30;4.70;;;4.50;;
2225;SDS011;1119;48.288;8.726;2022-07-29T01:47:02;5.00;;;4.80;;
2225;SDS011;1119;48.288;8.726;2022-07-29T01:49:39;4.97;;;4.77;;
2225;SDS011;1119;48.288;8.726;2022-07-29T01:52:13;5.50;;;5.20;;
2225;SDS011;1119;48.288;8.726;2022-07-29T01:54:51;7.60;;;5.57;;
2225;SDS011;1119;48.288;8.726;2022-07-29T01:57:29;5.30;;;5.00;;
2225;SDS011;1119;48.288;8.726;2022-07-29T01:59:59;4.70;;;4.50;;
2225;SDS011;1119;48.288;8.726;2022-07-29T02:02:37;5.00;;;4.70;;
2225;SDS011;1119;48.288;8.726;2022-07-29T02:05:08;5.70;;;5.40;;
2225;SDS011;1119;48.288;8.726;2022-07-29T02:07:39;5.83;;;5.53;;
2225;SDS011;1119;48.288;8.726;2022-07-29T02:10:08;6.13;;;5.67;;
2225;SDS011;1119;48.288;8.726;2022-07-29T02:12:38;5.63;;;5.30;;
2225;SDS011;1119;48.288;8.726;2022-07-29T02:15:08;5.63;;;5.23;;
2225;SDS011;1119;48.288;8.726;2022-07-29T02:17:39;4.87;;;4.67;;
2225;SDS011;1119;48.288;8.726;2022-07-29T02:20:10;5.10;;;4.90;;
2225;SDS011;1119;48.288;8.726;2022-07-29T02:22:39;6.10;;;5.60;;
2225;SDS011;1119;48.288;8.726;2022-07-29T02:25:07;6.87;;;6.47;;
2225;SDS011;1119;48.288;8.726;2022-07-29T02:27:35;5.90;;;5.50;;
2225;SDS011;1119;48.288;8.726;2022-07-29T02:30:06;6.33;;;6.03;;
2225;SDS011;1119;48.288;8.726;2022-07-29T02:32:37;7.80;;;6.97;;
2225;SDS011;1119;48.288;8.726;2022-07-29T02:35:07;5.93;;;5.63;;
2225;SDS011;1119;48.288;8.726;2022-07-29T02:37:36;7.70;;;7.00;;
2225;SDS011;1119;48.288;8.726;2022-07-29T02:40:04;6.60;;;6.20;;
2225;SDS011;1119;48.288;8.726;2022-07-29T02:42:35;6.73;;;6.33;;
2225;SDS011;1119;48.288;8.726;2022-07-29T02:45:04;6.90;;;6.50;;
2225;SDS011;1119;48.288;8.726;2022-07-29T02:47:35;7.50;;;7.10;;
2225;SDS011;1119;48.288;8.726;2022-07-29T02:50:07;6.70;;;6.30;;
2225;SDS011;1119;48.288;8.726;2022-07-29T02:52:41;7.83;;;7.30;;
2225;SDS011;1119;48.288;8.726;2022-07-29T02:55:14;6.60;;;6.30;;
2225;SDS011;1119;48.288;8.726;2022-07-29T02:57:46;8.80;;;8.17;;
2225;SDS011;1119;48.288;8.726;2022-07-29T03:00:18;8.93;;;7.10;;
2225;SDS011;1119;48.288;8.726;2022-07-29T03:02:49;7.60;;;7.10;;
2225;SDS011;1119;48.288;8.726;2022-07-29T03:05:19;7.97;;;7.17;;
2225;SDS011;1119;48.288;8.726;2022-07-29T03:07:48;7.70;;;7.30;;
2225;SDS011;1119;48.288;8.726;2022-07-29T03:10:23;7.20;;;6.90;;
2225;SDS011;1119;48.288;8.726;2022-07-29T03:12:52;7.70;;;7.13;;
2225;SDS011;1119;48.288;8.726;2022-07-29T03:15:20;6.33;;;6.03;;
2225;SDS011;1119;48.288;8.726;2022-07-29T03:17:49;6.93;;;6.60;;
2225;SDS011;1119;48.288;8.726;2022-07-29T03:20:18;6.10;;;5.90;;
2225;SDS011;1119;48.288;8.726;2022-07-29T03:22:45;7.03;;;6.53;;
2225;SDS011;1119;48.288;8.726;2022-07-29T03:25:13;8.50;;;7.90;;
2225;SDS011;1119;48.288;8.726;2022-07-29T03:27:41;7.80;;;7.23;;
2225;SDS011;1119;48.288;8.726;2022-07-29T03:30:10;8.00;;;7.60;;
2225;SDS011;1119;48.288;8.726;2022-07-29T03:32:40;7.13;;;6.70;;
2225;SDS011;1119;48.288;8.726;2022-07-29T03:35:09;7.70;;;7.20;;
2225;SDS011;1119;48.288;8.726;2022-07-29T03:37:36;8.27;;;7.67;;
2225;SDS011;1119;48.288;8.726;2022-07-29T03:40:05;7.90;;;7.10;;
2225;SDS011;1119;48.288;8.726;2022-07-29T03:42:35;8.27;;;7.70;;
2225;SDS011;1119;48.288;8.726;2022-07-29T03:45:06;9.47;;;8.97;;
2225;SDS011;1119;48.288;8.726;2022-07-29T03:47:37;8.80;;;8.10;;
2225;SDS011;1119;48.288;8.726;2022-07-29T03:50:17;8.80;;;8.33;;
2225;SDS011;1119;48.288;8.726;2022-07-29T03:52:46;8.03;;;7.37;;
2225;SDS011;1119;48.288;8.726;2022-07-29T03:55:14;8.23;;;7.67;;
2225;SDS011;1119;48.288;8.726;2022-07-29T03:57:42;6.73;;;6.33;;
2225;SDS011;1119;48.288;8.726;2022-07-29T04:00:11;8.13;;;7.73;;
2225;SDS011;1119;48.288;8.726;2022-07-29T04:02:40;7.47;;;7.07;;
2225;SDS011;1119;48.288;8.726;2022-07-29T04:05:11;7.07;;;6.17;;
2225;SDS011;1119;48.288;8.726;2022-07-29T04:07:40;7.50;;;7.10;;
2225;SDS011;1119;48.288;8.726;2022-07-29T04:10:09;7.43;;;6.67;;
2225;SDS011;1119;48.288;8.726;2022-07-29T04:12:37;7.60;;;7.10;;
2225;SDS011;1119;48.288;8.726;2022-07-29T04:15:04;6.83;;;6.43;;
2225;SDS011;1119;48.288;8.726;2022-07-29T04:17:32;7.70;;;7.30;;
2225;SDS011;1119;48.288;8.726;2022-07-29T04:20:00;6.50;;;6.20;;
2225;SDS011;1119;48.288;8.726;2022-07-29T04:22:27;8.53;;;7.70;;
2225;SDS011;1119;48.288;8.726;2022-07-29T04:24:55;7.23;;;6.83;;
2225;SDS011;1119;48.288;8.726;2022-07-29T04:27:22;7.20;;;6.80;;
2225;SDS011;1119;48.288;8.726;2022-07-29T04:29:50;7.53;;;7.03;;
2225;SDS011;1119;48.288;8.726;2022-07-29T04:32:17;7.60;;;7.07;;
2225;SDS011;1119;48.288;8.726;2022-07-29T04:34:44;7.67;;;7.27;;
2225;SDS011;1119;48.288;8.726;2022-07-29T04:37:12;7.30;;;6.90;;
2225;SDS011;1119;48.288;8.726;2022-07-29T04:39:39;7.70;;;7.27;;
2225;SDS011;1119;48.288;8.726;2022-07-29T04:42:07;6.30;;;5.90;;
2225;SDS011;1119;48.288;8.726;2022-07-29T04:44:34;6.80;;;6.50;;
2225;SDS011;1119;48.288;8.726;2022-07-29T04:47:02;6.63;;;6.20;;
2225;SDS011;1119;48.288;8.726;2022-07-29T04:49:29;6.83;;;6.53;;
2225;SDS011;1119;48.288;8.726;2022-07-29T04:51:56;8.73;;;7.93;;
2225;SDS011;1119;48.288;8.726;2022-07-29T04:54:23;7.60;;;7.20;;
2225;SDS011;1119;48.288;8.726;2022-07-29T04:56:50;7.33;;;6.93;;
2225;SDS011;1119;48.288;8.726;2022-07-29T04:59:19;7.47;;;7.07;;
2225;SDS011;1119;48.288;8.726;2022-07-29T05:01:46;6.53;;;6.13;;
2225;SDS011;1119;48.288;8.726;2022-07-29T05:04:13;6.60;;;6.20;;
2225;SDS011;1119;48.288;8.726;2022-07-29T05:06:40;6.67;;;6.23;;
2225;SDS011;1119;48.288;8.726;2022-07-29T05:09:07;6.90;;;6.50;;
2225;SDS011;1119;48.288;8.726;2022-07-29T05:11:34;7.93;;;6.97;;
2225;SDS011;1119;48.288;8.726;2022-07-29T05:14:01;6.07;;;5.67;;
2225;SDS011;1119;48.288;8.726;2022-07-29T05:16:30;6.17;;;5.83;;
2225;SDS011;1119;48.288;8.726;2022-07-29T05:18:57;7.03;;;6.47;;
2225;SDS011;1119;48.288;8.726;2022-07-29T05:21:24;6.97;;;6.67;;
2225;SDS011;1119;48.288;8.726;2022-07-29T05:23:51;7.07;;;6.67;;
2225;SDS011;1119;48.288;8.726;2022-07-29T05:26:18;7.20;;;6.80;;
2225;SDS011;1119;48.288;8.726;2022-07-29T05:28:45;7.17;;;6.77;;
2225;SDS011;1119;48.288;8.726;2022-07-29T05:31:12;6.83;;;6.33;;
2225;SDS011;1119;48.288;8.726;2022-07-29T05:33:42;13.03;;;6.60;;
2225;SDS011;1119;48.288;8.726;2022-07-29T05:36:09;6.50;;;6.00;;
2225;SDS011;1119;48.288;8.726;2022-07-29T05:38:37;6.83;;;6.43;;
2225;SDS011;1119;48.288;8.726;2022-07-29T05:41:04;8.70;;;7.33;;
2225;SDS011;1119;48.288;8.726;2022-07-29T05:43:31;7.93;;;7.43;;
2225;SDS011;1119;48.288;8.726;2022-07-29T05:45:59;8.10;;;7.60;;
2225;SDS011;1119;48.288;8.726;2022-07-29T05:48:26;8.13;;;7.40;;
2225;SDS011;1119;48.288;8.726;2022-07-29T05:50:54;8.43;;;7.77;;
2225;SDS011;1119;48.288;8.726;2022-07-29T05:53:22;9.07;;;8.30;;
2225;SDS011;1119;48.288;8.726;2022-07-29T05:55:50;9.50;;;8.87;;
2225;SDS011;1119;48.288;8.726;2022-07-29T05:58:18;8.83;;;8.30;;
2225;SDS011;1119;48.288;8.726;2022-07-29T06:00:45;8.60;;;8.10;;
2225;SDS011;1119;48.288;8.726;2022-07-29T06:03:12;8.10;;;7.70;;
2225;SDS011;1119;48.288;8.726;2022-07-29T06:05:39;8.63;;;8.03;;
2225;SDS011;1119;48.288;8.726;2022-07-29T06:08:08;8.40;;;7.80;;
2225;SDS011;1119;48.288;8.726;2022-07-29T06:10:35;8.23;;;7.63;;
2225;SDS011;1119;48.288;8.726;2022-07-29T06:13:02;9.03;;;8.43;;
2225;SDS011;1119;48.288;8.726;2022-07-29T06:15:29;9.93;;;8.90;;
2225;SDS011;1119;48.288;8.726;2022-07-29T06:17:56;9.50;;;8.60;;
2225;SDS011;1119;48.288;8.726;2022-07-29T06:20:24;9.70;;;9.10;;
2225;SDS011;1119;48.288;8.726;2022-07-29T06:22:51;8.27;;;7.60;;
2225;SDS011;1119;48.288;8.726;2022-07-29T06:25:20;9.23;;;8.67;;
2225;SDS011;1119;48.288;8.726;2022-07-29T06:27:47;8.67;;;8.23;;
2225;SDS011;1119;48.288;8.726;2022-07-29T06:30:14;8.17;;;7.77;;
2225;SDS011;1119;48.288;8.726;2022-07-29T06:32:41;9.07;;;8.17;;
2225;SDS011;1119;48.288;8.726;2022-07-29T06:35:09;8.00;;;7.60;;
2225;SDS011;1119;48.288;8.726;2022-07-29T06:37:36;8.37;;;7.80;;
2225;SDS011;1119;48.288;8.726;2022-07-29T06:40:03;8.10;;;7.70;;
2225;SDS011;1119;48.288;8.726;2022-07-29T06:42:50;11.80;;;8.13;;
2225;SDS011;1119;48.288;8.726;2022-07-29T06:45:17;9.87;;;9.17;;
2225;SDS011;1119;48.288;8.726;2022-07-29T06:47:44;9.17;;;8.37;;
2225;SDS011;1119;48.288;8.726;2022-07-29T06:50:11;7.73;;;7.33;;
2225;SDS011;1119;48.288;8.726;2022-07-29T06:52:39;8.70;;;8.03;;
2225;SDS011;1119;48.288;8.726;2022-07-29T06:55:07;9.00;;;8.30;;
2225;SDS011;1119;48.288;8.726;2022-07-29T06:57:35;6.97;;;6.57;;
2225;SDS011;1119;48.288;8.726;2022-07-29T07:00:04;7.10;;;6.80;;
2225;SDS011;1119;48.288;8.726;2022-07-29T07:02:32;7.93;;;7.40;;
2225;SDS011;1119;48.288;8.726;2022-07-29T07:04:59;8.63;;;8.13;;
2225;SDS011;1119;48.288;8.726;2022-07-29T07:07:27;7.30;;;6.90;;
2225;SDS011;1119;48.288;8.726;2022-07-29T07:09:54;9.03;;;8.53;;
2225;SDS011;1119;48.288;8.726;2022-07-29T07:12:21;8.63;;;8.03;;
2225;SDS011;1119;48.288;8.726;2022-07-29T07:14:48;8.43;;;7.90;;
2225;SDS011;1119;48.288;8.726;2022-07-29T07:17:16;8.43;;;7.93;;
2225;SDS011;1119;48.288;8.726;2022-07-29T07:19:43;7.80;;;7.30;;
2225;SDS011;1119;48.288;8.726;2022-07-29T07:22:11;8.40;;;7.80;;
2225;SDS011;1119;48.288;8.726;2022-07-29T07:24:38;8.23;;;7.83;;
2225;SDS011;1119;48.288;8.726;2022-07-29T07:27:05;9.10;;;8.30;;
2225;SDS011;1119;48.288;8.726;2022-07-29T07:29:32;8.60;;;8.10;;
2225;SDS011;1119;48.288;8.726;2022-07-29T07:31:59;8.50;;;7.90;;
2225;SDS011;1119;48.288;8.726;2022-07-29T07:34:28;8.77;;;8.13;;
2225;SDS011;1119;48.288;8.726;2022-07-29T07:36:55;9.03;;;8.27;;
2225;SDS011;1119;48.288;8.726;2022-07-29T07:39:22;7.70;;;7.20;;
2225;SDS011;1119;48.288;8.726;2022-07-29T07:41:51;8.27;;;7.57;;
2225;SDS011;1119;48.288;8.726;2022-07-29T07:44:18;8.53;;;7.73;;
2225;SDS011;1119;48.288;8.726;2022-07-29T07:46:45;7.80;;;7.20;;
2225;SDS011;1119;48.288;8.726;2022-07-29T07:49:12;7.43;;;7.03;;
2225;SDS011;1119;48.288;8.726;2022-07-29T07:51:41;7.33;;;7.03;;
2225;SDS011;1119;48.288;8.726;2022-07-29T07:54:08;7.60;;;7.03;;
2225;SDS011;1119;48.288;8.726;2022-07-29T07:56:35;7.30;;;6.90;;
2225;SDS011;1119;48.288;8.726;2022-07-29T07:59:02;6.70;;;6.20;;
2225;SDS011;1119;48.288;8.726;2022-07-29T08:01:29;7.27;;;6.77;;
2225;SDS011;1119;48.288;8.726;2022-07-29T08:03:57;6.87;;;6.57;;
2225;SDS011;1119;48.288;8.726;2022-07-29T08:06:24;7.60;;;7.07;;
2225;SDS011;1119;48.288;8.726;2022-07-29T08:08:52;7.30;;;6.90;;
2225;SDS011;1119;48.288;8.726;2022-07-29T08:11:20;7.40;;;6.70;;
2225;SDS011;1119;48.288;8.726;2022-07-29T08:13:47;8.03;;;7.40;;
2225;SDS011;1119;48.288;8.726;2022-07-29T08:16:14;7.40;;;6.97;;
2225;SDS011;1119;48.288;8.726;2022-07-29T08:18:42;7.83;;;7.00;;
2225;SDS011;1119;48.288;8.726;2022-07-29T08:21:10;7.60;;;7.20;;
2225;SDS011;1119;48.288;8.726;2022-07-29T08:23:38;7.03;;;6.40;;
2225;SDS011;1119;48.288;8.726;2022-07-29T08:26:12;8.10;;;7.30;;
2225;SDS011;1119;48.288;8.726;2022-07-29T08:28:41;6.70;;;6.40;;
2225;SDS011;1119;48.288;8.726;2022-07-29T08:31:11;8.80;;;8.13;;
2225;SDS011;1119;48.288;8.726;2022-07-29T08:33:39;7.77;;;7.37;;
2225;SDS011;1119;48.288;8.726;2022-07-29T08:36:06;7.33;;;6.93;;
2225;SDS011;1119;48.288;8.726;2022-07-29T08:38:34;6.50;;;6.00;;
2225;SDS011;1119;48.288;8.726;2022-07-29T08:41:02;8.67;;;7.97;;
2225;SDS011;1119;48.288;8.726;2022-07-29T08:43:31;8.50;;;7.90;;
2225;SDS011;1119;48.288;8.726;2022-07-29T08:46:00;7.60;;;7.20;;
2225;SDS011;1119;48.288;8.726;2022-07-29T08:48:27;7.87;;;7.27;;
2225;SDS011;1119;48.288;8.726;2022-07-29T08:50:55;7.67;;;7.17;;
2225;SDS011;1119;48.288;8.726;2022-07-29T08:53:24;7.60;;;7.10;;
2225;SDS011;1119;48.288;8.726;2022-07-29T08:55:53;7.27;;;6.80;;
2225;SDS011;1119;48.288;8.726;2022-07-29T08:58:21;7.80;;;7.43;;
2225;SDS011;1119;48.288;8.726;2022-07-29T09:00:51;8.53;;;8.03;;
2225;SDS011;1119;48.288;8.726;2022-07-29T09:03:22;6.93;;;6.53;;
2225;SDS011;1119;48.288;8.726;2022-07-29T09:05:52;7.30;;;6.80;;
2225;SDS011;1119;48.288;8.726;2022-07-29T09:08:20;8.00;;;7.20;;
2225;SDS011;1119;48.288;8.726;2022-07-29T09:10:48;6.40;;;6.00;;
2225;SDS011;1119;48.288;8.726;2022-07-29T09:13:16;8.13;;;7.13;;
2225;SDS011;1119;48.288;8.726;2022-07-29T09:15:43;8.10;;;7.50;;
2225;SDS011;1119;48.288;8.726;2022-07-29T09:18:12;8.40;;;8.00;;
2225;SDS011;1119;48.288;8.726;2022-07-29T09:21:00;7.40;;;6.80;;
2225;SDS011;1119;48.288;8.726;2022-07-29T09:23:59;7.57;;;6.87;;
2225;SDS011;1119;48.288;8.726;2022-07-29T09:26:28;9.63;;;7.20;;
2225;SDS011;1119;48.288;8.726;2022-07-29T09:28:57;7.10;;;6.70;;
2225;SDS011;1119;48.288;8.726;2022-07-29T09:34:13;8.00;;;7.60;;
2225;SDS011;1119;48.288;8.726;2022-07-29T09:36:43;8.73;;;8.10;;
2225;SDS011;1119;48.288;8.726;2022-07-29T09:39:12;8.03;;;7.50;;
2225;SDS011;1119;48.288;8.726;2022-07-29T09:41:44;7.70;;;7.10;;
2225;SDS011;1119;48.288;8.726;2022-07-29T09:44:13;8.43;;;7.70;;
2225;SDS011;1119;48.288;8.726;2022-07-29T09:46:41;7.40;;;7.00;;
2225;SDS011;1119;48.288;8.726;2022-07-29T09:49:22;7.33;;;6.93;;
2225;SDS011;1119;48.288;8.726;2022-07-29T09:51:58;8.33;;;7.93;;
2225;SDS011;1119;48.288;8.726;2022-07-29T09:54:30;8.33;;;7.73;;
2225;SDS011;1119;48.288;8.726;2022-07-29T09:57:02;8.43;;;7.80;;
2225;SDS011;1119;48.288;8.726;2022-07-29T09:59:31;7.40;;;7.00;;
2225;SDS011;1119;48.288;8.726;2022-07-29T10:01:59;8.57;;;7.93;;
2225;SDS011;1119;48.288;8.726;2022-07-29T10:04:38;7.30;;;7.00;;
2225;SDS011;1119;48.288;8.726;2022-07-29T10:07:07;8.23;;;7.73;;
2225;SDS011;1119;48.288;8.726;2022-07-29T10:09:35;7.60;;;7.20;;
2225;SDS011;1119;48.288;8.726;2022-07-29T10:12:03;7.17;;;6.77;;
2225;SDS011;1119;48.288;8.726;2022-07-29T10:14:36;7.83;;;7.33;;
2225;SDS011;1119;48.288;8.726;2022-07-29T10:17:04;7.87;;;7.00;;
2225;SDS011;1119;48.288;8.726;2022-07-29T10:19:33;7.40;;;6.90;;
2225;SDS011;1119;48.288;8.726;2022-07-29T10:22:05;8.03;;;7.53;;
2225;SDS011;1119;48.288;8.726;2022-07-29T10:24:34;8.27;;;7.50;;
2225;SDS011;1119;48.288;8.726;2022-07-29T10:27:03;7.47;;;7.07;;
2225;SDS011;1119;48.288;8.726;2022-07-29T10:29:32;7.57;;;7.07;;
2225;SDS011;1119;48.288;8.726;2022-07-29T10:32:09;7.33;;;6.77;;
2225;SDS011;1119;48.288;8.726;2022-07-29T10:35:15;7.83;;;7.20;;
2225;SDS011;1119;48.288;8.726;2022-07-29T10:38:02;8.60;;;8.07;;
2225;SDS011;1119;48.288;8.726;2022-07-29T10:40:43;7.57;;;7.07;;
2225;SDS011;1119;48.288;8.726;2022-07-29T10:43:40;8.20;;;7.80;;
2225;SDS011;1119;48.288;8.726;2022-07-29T10:46:10;8.63;;;7.93;;
2225;SDS011;1119;48.288;8.726;2022-07-29T10:57:24;8.20;;;7.67;;
2225;SDS011;1119;48.288;8.726;2022-07-29T11:02:58;8.10;;;7.70;;
2225;SDS011;1119;48.288;8.726;2022-07-29T11:05:26;7.20;;;6.90;;
2225;SDS011;1119;48.288;8.726;2022-07-29T11:10:52;8.37;;;7.97;;
2225;SDS011;1119;48.288;8.726;2022-07-29T11:13:59;7.97;;;7.40;;
2225;SDS011;1119;48.288;8.726;2022-07-29T11:16:26;8.33;;;7.93;;
2225;SDS011;1119;48.288;8.726;2022-07-29T11:19:31;8.30;;;7.70;;
2225;SDS011;1119;48.288;8.726;2022-07-29T11:22:00;8.47;;;7.97;;
2225;SDS011;1119;48.288;8.726;2022-07-29T11:24:29;8.47;;;8.00;;
2225;SDS011;1119;48.288;8.726;2022-07-29T11:27:08;8.20;;;7.70;;
2225;SDS011;1119;48.288;8.726;2022-07-29T11:29:39;7.87;;;7.40;;
2225;SDS011;1119;48.288;8.726;2022-07-29T11:32:15;8.13;;;7.63;;
2225;SDS011;1119;48.288;8.726;2022-07-29T11:34:45;10.33;;;9.73;;
2225;SDS011;1119;48.288;8.726;2022-07-29T11:37:14;8.33;;;7.73;;
2225;SDS011;1119;48.288;8.726;2022-07-29T11:42:47;7.87;;;7.47;;
2225;SDS011;1119;48.288;8.726;2022-07-29T11:45:19;7.50;;;7.10;;
2225;SDS011;1119;48.288;8.726;2022-07-29T11:47:54;8.07;;;7.77;;
2225;SDS011;1119;48.288;8.726;2022-07-29T11:50:34;8.07;;;7.60;;
2225;SDS011;1119;48.288;8.726;2022-07-29T11:53:03;7.43;;;6.90;;
2225;SDS011;1119;48.288;8.726;2022-07-29T11:55:38;8.10;;;7.60;;
2225;SDS011;1119;48.288;8.726;2022-07-29T11:58:08;7.80;;;7.03;;
2225;SDS011;1119;48.288;8.726;2022-07-29T12:00:37;7.30;;;6.87;;
2225;SDS011;1119;48.288;8.726;2022-07-29T12:03:08;8.10;;;7.50;;
2225;SDS011;1119;48.288;8.726;2022-07-29T12:05:38;7.63;;;7.03;;
2225;SDS011;1119;48.288;8.726;2022-07-29T12:08:08;7.10;;;6.70;;
2225;SDS011;1119;48.288;8.726;2022-07-29T12:10:38;7.23;;;6.83;;
2225;SDS011;1119;48.288;8.726;2022-07-29T12:13:06;7.97;;;7.40;;
2225;SDS011;1119;48.288;8.726;2022-07-29T12:15:36;6.07;;;5.73;;
2225;SDS011;1119;48.288;8.726;2022-07-29T12:18:13;7.00;;;6.70;;
2225;SDS011;1119;48.288;8.726;2022-07-29T12:20:42;6.47;;;6.07;;
2225;SDS011;1119;48.288;8.726;2022-07-29T12:23:10;6.20;;;6.00;;
2225;SDS011;1119;48.288;8.726;2022-07-29T12:25:39;7.03;;;6.50;;
2225;SDS011;1119;48.288;8.726;2022-07-29T12:28:10;7.23;;;6.77;;
2225;SDS011;1119;48.288;8.726;2022-07-29T12:30:42;7.30;;;6.77;;
2225;SDS011;1119;48.288;8.726;2022-07-29T12:33:15;6.40;;;6.10;;
2225;SDS011;1119;48.288;8.726;2022-07-29T12:35:46;6.77;;;6.37;;
2225;SDS011;1119;48.288;8.726;2022-07-29T12:38:16;6.67;;;6.27;;
2225;SDS011;1119;48.288;8.726;2022-07-29T12:40:45;7.50;;;7.00;;
2225;SDS011;1119;48.288;8.726;2022-07-29T12:43:15;8.70;;;8.20;;
2225;SDS011;1119;48.288;8.726;2022-07-29T12:45:45;7.60;;;7.20;;
2225;SDS011;1119;48.288;8.726;2022-07-29T12:48:13;7.80;;;7.10;;
2225;SDS011;1119;48.288;8.726;2022-07-29T12:50:54;7.30;;;6.90;;
2225;SDS011;1119;48.288;8.726;2022-07-29T12:53:23;6.90;;;6.30;;
2225;SDS011;1119;48.288;8.726;2022-07-29T12:55:52;6.53;;;6.13;;
2225;SDS011;1119;48.288;8.726;2022-07-29T12:58:29;6.60;;;6.20;;
2225;SDS011;1119;48.288;8.726;2022-07-29T13:01:06;6.40;;;6.10;;
2225;SDS011;1119;48.288;8.726;2022-07-29T13:03:46;7.00;;;6.60;;
2225;SDS011;1119;48.288;8.726;2022-07-29T13:06:29;6.73;;;6.40;;
2225;SDS011;1119;48.288;8.726;2022-07-29T13:09:00;7.80;;;7.00;;
2225;SDS011;1119;48.288;8.726;2022-07-29T13:11:30;7.20;;;6.70;;
2225;SDS011;1119;48.288;8.726;2022-07-29T13:14:00;6.57;;;6.17;;
2225;SDS011;1119;48.288;8.726;2022-07-29T13:16:28;7.70;;;7.10;;
2225;SDS011;1119;48.288;8.726;2022-07-29T13:19:05;6.70;;;6.30;;
2225;SDS011;1119;48.288;8.726;2022-07-29T13:21:36;5.90;;;5.60;;
2225;SDS011;1119;48.288;8.726;2022-07-29T13:24:04;6.47;;;6.13;;
2225;SDS011;1119;48.288;8.726;2022-07-29T13:26:33;6.37;;;5.97;;
2225;SDS011;1119;48.288;8.726;2022-07-29T13:29:03;6.53;;;6.23;;
2225;SDS011;1119;48.288;8.726;2022-07-29T13:31:30;7.53;;;7.13;;
2225;SDS011;1119;48.288;8.726;2022-07-29T13:33:57;6.37;;;5.97;;
2225;SDS011;1119;48.288;8.726;2022-07-29T13:36:24;6.70;;;6.30;;
2225;SDS011;1119;48.288;8.726;2022-07-29T13:38:52;6.73;;;6.20;;
2225;SDS011;1119;48.288;8.726;2022-07-29T13:41:19;6.80;;;6.40;;
2225;SDS011;1119;48.288;8.726;2022-07-29T13:43:46;6.90;;;6.40;;
2225;SDS011;1119;48.288;8.726;2022-07-29T13:46:14;5.97;;;5.33;;
2225;SDS011;1119;48.288;8.726;2022-07-29T13:48:42;6.47;;;6.07;;
2225;SDS011;1119;48.288;8.726;2022-07-29T13:51:09;7.40;;;7.00;;
2225;SDS011;1119;48.288;8.726;2022-07-29T13:53:36;6.20;;;5.90;;
2225;SDS011;1119;48.288;8.726;2022-07-29T13:56:03;7.70;;;7.20;;
2225;SDS011;1119;48.288;8.726;2022-07-29T13:58:32;7.40;;;7.00;;
2225;SDS011;1119;48.288;8.726;2022-07-29T14:00:59;7.47;;;7.13;;
2225;SDS011;1119;48.288;8.726;2022-07-29T14:03:28;7.47;;;7.07;;
2225;SDS011;1119;48.288;8.726;2022-07-29T14:05:56;7.17;;;6.67;;
2225;SDS011;1119;48.288;8.726;2022-07-29T14:08:25;7.40;;;6.80;;
2225;SDS011;1119;48.288;8.726;2022-07-29T14:10:52;6.50;;;6.20;;
2225;SDS011;1119;48.288;8.726;2022-07-29T14:13:21;7.63;;;7.13;;
2225;SDS011;1119;48.288;8.726;2022-07-29T14:15:48;6.73;;;6.33;;
2225;SDS011;1119;48.288;8.726;2022-07-29T14:18:15;6.37;;;6.07;;
2225;SDS011;1119;48.288;8.726;2022-07-29T14:20:44;6.77;;;6.47;;
2225;SDS011;1119;48.288;8.726;2022-07-29T14:23:11;7.70;;;7.10;;
2225;SDS011;1119;48.288;8.726;2022-07-29T14:25:38;5.97;;;5.67;;
2225;SDS011;1119;48.288;8.726;2022-07-29T14:28:06;6.80;;;6.30;;
2225;SDS011;1119;48.288;8.726;2022-07-29T14:30:33;7.20;;;6.80;;
2225;SDS011;1119;48.288;8.726;2022-07-29T14:33:00;7.33;;;6.93;;
2225;SDS011;1119;48.288;8.726;2022-07-29T14:35:28;6.03;;;5.73;;
2225;SDS011;1119;48.288;8.726;2022-07-29T14:37:56;6.70;;;6.40;;
2225;SDS011;1119;48.288;8.726;2022-07-29T14:40:23;6.30;;;5.90;;
2225;SDS011;1119;48.288;8.726;2022-07-29T14:42:51;6.90;;;6.30;;
2225;SDS011;1119;48.288;8.726;2022-07-29T14:45:18;5.67;;;5.47;;
2225;SDS011;1119;48.288;8.726;2022-07-29T14:47:45;6.90;;;6.50;;
2225;SDS011;1119;48.288;8.726;2022-07-29T14:50:14;6.60;;;6.20;;
2225;SDS011;1119;48.288;8.726;2022-07-29T14:52:41;6.97;;;6.67;;
2225;SDS011;1119;48.288;8.726;2022-07-29T14:55:10;6.27;;;5.80;;
2225;SDS011;1119;48.288;8.726;2022-07-29T14:57:37;6.80;;;6.30;;
2225;SDS011;1119;48.288;8.726;2022-07-29T15:00:04;6.33;;;5.97;;
2225;SDS011;1119;48.288;8.726;2022-07-29T15:02:33;5.60;;;5.30;;
2225;SDS011;1119;48.288;8.726;2022-07-29T15:05:00;6.03;;;5.53;;
2225;SDS011;1119;48.288;8.726;2022-07-29T15:07:27;6.83;;;6.23;;
2225;SDS011;1119;48.288;8.726;2022-07-29T15:09:55;6.87;;;6.47;;
2225;SDS011;1119;48.288;8.726;2022-07-29T15:12:24;7.63;;;7.03;;
2225;SDS011;1119;48.288;8.726;2022-07-29T15:14:51;7.13;;;6.63;;
2225;SDS011;1119;48.288;8.726;2022-07-29T15:17:18;6.10;;;5.70;;
2225;SDS011;1119;48.288;8.726;2022-07-29T15:19:45;7.17;;;6.67;;
2225;SDS011;1119;48.288;8.726;2022-07-29T15:22:13;6.10;;;5.90;;
2225;SDS011;1119;48.288;8.726;2022-07-29T15:24:40;7.10;;;6.70;;
2225;SDS011;1119;48.288;8.726;2022-07-29T15:27:07;6.97;;;6.57;;
2225;SDS011;1119;48.288;8.726;2022-07-29T15:29:40;6.10;;;5.80;;
2225;SDS011;1119;48.288;8.726;2022-07-29T15:32:07;6.60;;;6.07;;
2225;SDS011;1119;48.288;8.726;2022-07-29T15:34:35;6.30;;;5.60;;
2225;SDS011;1119;48.288;8.726;2022-07-29T15:37:03;6.50;;;5.97;;
2225;SDS011;1119;48.288;8.726;2022-07-29T15:39:31;6.00;;;5.80;;
2225;SDS011;1119;48.288;8.726;2022-07-29T15:41:58;7.10;;;6.40;;
2225;SDS011;1119;48.288;8.726;2022-07-29T15:44:26;6.47;;;6.03;;
2225;SDS011;1119;48.288;8.726;2022-07-29T15:46:54;6.20;;;5.70;;
2225;SDS011;1119;48.288;8.726;2022-07-29T15:49:31;8.27;;;7.50;;
2225;SDS011;1119;48.288;8.726;2022-07-29T15:52:00;6.30;;;6.00;;
2225;SDS011;1119;48.288;8.726;2022-07-29T15:54:31;6.70;;;5.70;;